Time;durP1;ratioP1;P1;durP2;ratioP2;P2;SDS_P1;SDS_P2;PMS_P1;PMS_P2;Temp;Humidity;BMP_temperature;BMP_pressure;BME280_temperature;BME280_humidity;BME280_pressure;Samples;Min_cycle;Max_cycle;Signal;HPM_P1;HPM_P2
2023/07/19 04:01:13;;;;;;;4.07;2.47;;;13.80;97.30;;;;;;5659406;23;20500;-79
2023/07/19 04:03:38;;;;;;;2.90;2.13;;;13.80;97.30;;;;;;4951403;29;20521;-81
2023/07/19 04:06:04;;;;;;;2.23;2.03;;;13.80;97.30;;;;;;4946402;28;20186;-80
2023/07/19 04:08:30;;;;;;;1.37;1.37;;;13.80;97.30;;;;;;4952416;29;20257;-83
2023/07/19 04:10:55;;;;;;;1.50;1.40;;;13.90;97.30;;;;;;4951735;28;20740;-80
2023/07/19 04:13:21;;;;;;;2.00;1.50;;;13.80;97.30;;;;;;4953683;28;20172;-82
2023/07/19 04:15:46;;;;;;;1.33;1.23;;;13.90;97.30;;;;;;4976662;23;20609;-65
2023/07/19 04:18:12;;;;;;;10.50;1.77;;;13.90;97.30;;;;;;4953996;28;20213;-65
2023/07/19 04:20:38;;;;;;;1.60;1.50;;;13.90;97.30;;;;;;4961705;28;20207;-65
2023/07/19 04:23:03;;;;;;;1.40;1.40;;;13.90;97.30;;;;;;4971248;28;20178;-65
2023/07/19 04:25:30;;;;;;;2.80;2.20;;;13.90;97.30;;;;;;4974921;28;20190;-65
2023/07/19 04:27:56;;;;;;;1.47;1.37;;;14.00;97.30;;;;;;4967595;28;20293;-64
2023/07/19 04:30:21;;;;;;;1.50;1.40;;;14.00;97.30;;;;;;4968640;28;20956;-64
2023/07/19 04:32:48;;;;;;;3.10;2.23;;;14.00;97.30;;;;;;4968742;28;20175;-64
2023/07/19 04:35:14;;;;;;;1.20;1.20;;;14.00;97.30;;;;;;4970987;28;20249;-65
2023/07/19 04:37:41;;;;;;;2.27;1.50;;;14.10;97.30;;;;;;4969099;28;20483;-65
2023/07/19 04:40:08;;;;;;;3.40;1.63;;;14.10;97.30;;;;;;4970952;28;20183;-64
2023/07/19 04:42:34;;;;;;;1.50;1.40;;;14.20;97.30;;;;;;4970537;28;20797;-64
2023/07/19 04:44:59;;;;;;;1.60;1.50;;;14.20;97.30;;;;;;4969455;28;20433;-64
2023/07/19 04:47:25;;;;;;;1.97;1.87;;;14.20;97.30;;;;;;4968794;28;20210;-65
2023/07/19 04:49:51;;;;;;;1.33;1.23;;;14.30;97.30;;;;;;4970520;28;20215;-65
2023/07/19 04:52:16;;;;;;;2.77;1.83;;;14.30;97.30;;;;;;4969205;28;20194;-65
2023/07/19 04:54:42;;;;;;;5.00;1.70;;;14.40;97.30;;;;;;4970553;28;20193;-66
2023/07/19 04:57:07;;;;;;;8.77;2.90;;;14.40;97.30;;;;;;4969164;28;20210;-65
2023/07/19 04:59:33;;;;;;;3.60;2.70;;;14.50;97.30;;;;;;4968178;28;20186;-65
2023/07/19 05:01:59;;;;;;;3.00;1.80;;;14.50;97.30;;;;;;4968968;28;20218;-65
2023/07/19 05:04:24;;;;;;;6.70;2.43;;;14.60;97.30;;;;;;4966713;28;20186;-65
2023/07/19 05:06:50;;;;;;;2.37;2.17;;;14.70;97.30;;;;;;4969178;28;20631;-65
2023/07/19 05:09:16;;;;;;;3.17;1.70;;;14.70;97.30;;;;;;4967536;28;20210;-65
2023/07/19 05:11:42;;;;;;;2.87;1.97;;;14.80;97.30;;;;;;4967411;28;20924;-65
2023/07/19 05:14:08;;;;;;;1.63;1.53;;;14.90;97.30;;;;;;4964643;28;20203;-65
2023/07/19 05:16:34;;;;;;;1.57;1.47;;;14.90;97.30;;;;;;4962955;28;20836;-65
2023/07/19 05:19:00;;;;;;;1.80;1.70;;;15.00;97.30;;;;;;4967857;28;20194;-65
2023/07/19 05:21:25;;;;;;;1.63;1.20;;;15.10;97.30;;;;;;4968885;28;20576;-65
2023/07/19 05:23:51;;;;;;;1.30;1.20;;;15.10;97.30;;;;;;4970817;28;20186;-65
2023/07/19 05:26:17;;;;;;;1.50;1.43;;;15.20;97.30;;;;;;4969768;28;20193;-65
2023/07/19 05:28:43;;;;;;;1.80;1.63;;;15.30;97.30;;;;;;4970096;28;20214;-65
2023/07/19 05:31:09;;;;;;;2.00;1.50;;;15.40;97.30;;;;;;4967744;28;20445;-65
2023/07/19 05:33:35;;;;;;;1.43;1.37;;;15.50;97.30;;;;;;4968876;28;20516;-65
2023/07/19 05:36:01;;;;;;;6.17;1.93;;;15.60;97.30;;;;;;4965805;28;20548;-65
2023/07/19 05:38:27;;;;;;;2.70;1.50;;;15.80;97.30;;;;;;4965465;28;20433;-65
2023/07/19 05:41:01;;;;;;;1.83;1.60;;;15.90;97.30;;;;;;4966518;28;20194;-65
2023/07/19 05:43:27;;;;;;;2.40;1.40;;;16.00;97.30;;;;;;4967893;28;20545;-64
2023/07/19 05:45:53;;;;;;;3.13;1.53;;;16.10;97.30;;;;;;4967874;28;20446;-64
2023/07/19 05:48:18;;;;;;;3.50;1.63;;;16.20;97.30;;;;;;4966676;28;20198;-64
2023/07/19 05:50:44;;;;;;;1.10;1.00;;;16.30;97.30;;;;;;4966927;28;20337;-64
2023/07/19 05:53:10;;;;;;;3.57;1.80;;;16.40;97.30;;;;;;4967303;28;20182;-65
2023/07/19 05:55:36;;;;;;;1.70;1.60;;;16.50;97.30;;;;;;4967694;28;20181;-64
2023/07/19 05:58:02;;;;;;;1.30;1.30;;;16.60;97.30;;;;;;4969236;28;20426;-64
2023/07/19 06:00:30;;;;;;;1.80;1.70;;;16.70;96.60;;;;;;4967651;28;20202;-64
2023/07/19 06:02:56;;;;;;;1.37;1.30;;;16.80;96.80;;;;;;4967908;28;20662;-64
2023/07/19 06:05:23;;;;;;;1.40;1.30;;;16.90;96.00;;;;;;4969400;28;20422;-64
2023/07/19 06:07:51;;;;;;;1.30;1.20;;;17.00;95.60;;;;;;4967350;28;20274;-64
2023/07/19 06:10:18;;;;;;;2.30;1.10;;;17.20;95.70;;;;;;4967747;28;20429;-64
2023/07/19 06:12:44;;;;;;;1.33;1.23;;;17.30;95.50;;;;;;4968836;28;20481;-64
2023/07/19 06:15:10;;;;;;;1.63;1.47;;;17.40;94.90;;;;;;4967634;28;20422;-65
2023/07/19 06:17:36;;;;;;;1.70;1.60;;;17.50;94.80;;;;;;4968859;28;20422;-64
2023/07/19 06:20:04;;;;;;;1.67;1.43;;;17.60;94.10;;;;;;4970692;28;20244;-64
2023/07/19 06:22:30;;;;;;;3.73;1.67;;;17.70;93.90;;;;;;4968800;28;20187;-64
2023/07/19 06:24:57;;;;;;;2.13;1.77;;;17.90;93.40;;;;;;4966619;28;20930;-64
2023/07/19 06:27:23;;;;;;;1.67;1.60;;;18.00;92.90;;;;;;4967684;28;20480;-64
2023/07/19 06:29:50;;;;;;;4.27;1.83;;;18.10;92.60;;;;;;4964675;28;20474;-64
2023/07/19 06:32:16;;;;;;;2.37;1.70;;;18.20;91.40;;;;;;4957785;28;20230;-64
2023/07/19 06:34:42;;;;;;;1.63;1.40;;;18.30;90.70;;;;;;4966427;28;20460;-64
2023/07/19 06:37:07;;;;;;;1.43;1.33;;;18.40;90.90;;;;;;4969018;28;20171;-64
2023/07/19 06:39:33;;;;;;;1.20;1.10;;;18.60;90.90;;;;;;4966731;28;20484;-64
2023/07/19 06:41:58;;;;;;;1.93;1.83;;;18.70;90.70;;;;;;4965869;28;20203;-64
2023/07/19 06:44:24;;;;;;;1.73;1.57;;;18.80;90.80;;;;;;4959797;28;20182;-64
2023/07/19 06:46:49;;;;;;;1.23;1.13;;;19.00;90.70;;;;;;4966830;28;20598;-64
2023/07/19 06:49:15;;;;;;;1.47;1.30;;;19.10;90.50;;;;;;4970462;28;20210;-64
2023/07/19 06:51:40;;;;;;;1.67;1.60;;;19.10;90.30;;;;;;4969052;28;20211;-64
2023/07/19 06:54:06;;;;;;;1.47;1.30;;;19.30;90.10;;;;;;4966125;28;20187;-64
2023/07/19 06:56:32;;;;;;;1.30;1.20;;;19.40;90.10;;;;;;4966388;28;20186;-64
2023/07/19 06:58:58;;;;;;;1.20;1.10;;;19.50;89.30;;;;;;4960580;28;20626;-64
2023/07/19 07:01:23;;;;;;;1.17;1.07;;;19.60;88.80;;;;;;4965982;28;20433;-64
2023/07/19 07:03:50;;;;;;;2.50;1.60;;;19.70;87.50;;;;;;4966649;28;20569;-65
2023/07/19 07:06:16;;;;;;;4.93;1.67;;;19.90;86.90;;;;;;4974713;28;20607;-65
2023/07/19 07:08:42;;;;;;;12.60;1.77;;;20.00;86.80;;;;;;4963794;28;21029;-64
2023/07/19 07:11:07;;;;;;;3.50;1.40;;;20.10;86.90;;;;;;4970774;28;20291;-64
2023/07/19 07:13:33;;;;;;;1.70;1.60;;;20.30;86.80;;;;;;4966883;28;20256;-65
2023/07/19 07:15:59;;;;;;;18.93;1.83;;;20.50;86.40;;;;;;4967038;28;20338;-65
2023/07/19 07:18:25;;;;;;;4.50;2.70;;;20.60;86.40;;;;;;4964965;28;20245;-65
2023/07/19 07:20:54;;;;;;;2.70;2.50;;;20.60;86.30;;;;;;4963389;28;20833;-65
2023/07/19 07:23:20;;;;;;;2.30;1.67;;;20.70;86.40;;;;;;4964120;28;20183;-64
2023/07/19 07:25:46;;;;;;;14.60;1.80;;;20.80;86.20;;;;;;4961216;28;20432;-65
2023/07/19 07:28:11;;;;;;;3.93;2.17;;;20.80;86.10;;;;;;4963648;28;20199;-65
2023/07/19 07:30:37;;;;;;;1.40;1.30;;;20.90;86.70;;;;;;4963022;28;20214;-65
2023/07/19 07:33:06;;;;;;;1.70;1.60;;;21.00;85.70;;;;;;4962823;28;20275;-65
2023/07/19 07:35:32;;;;;;;25.93;2.10;;;21.10;85.30;;;;;;4961811;28;20312;-64
2023/07/19 07:37:58;;;;;;;2.33;1.73;;;21.20;85.70;;;;;;4963285;28;20446;-65
2023/07/19 07:40:23;;;;;;;1.83;1.30;;;21.30;85.40;;;;;;4966698;28;20261;-65
2023/07/19 07:42:49;;;;;;;2.70;1.20;;;21.50;86.20;;;;;;4968981;28;20210;-65
2023/07/19 07:45:14;;;;;;;2.10;1.50;;;21.70;86.00;;;;;;4969818;28;20262;-65
2023/07/19 07:47:40;;;;;;;1.63;1.53;;;21.80;84.70;;;;;;4970691;28;20209;-65
2023/07/19 07:50:08;;;;;;;1.30;1.20;;;22.00;83.10;;;;;;4969494;28;20674;-64
2023/07/19 07:52:34;;;;;;;1.50;1.40;;;22.20;82.70;;;;;;4962098;28;20205;-65
2023/07/19 07:55:00;;;;;;;1.63;1.57;;;22.30;82.10;;;;;;4962244;28;20516;-64
2023/07/19 07:57:26;;;;;;;1.17;1.10;;;22.40;80.50;;;;;;4967213;28;20429;-64
2023/07/19 07:59:51;;;;;;;4.77;1.90;;;22.40;79.60;;;;;;4969174;28;20650;-64
2023/07/19 08:02:17;;;;;;;1.80;1.33;;;22.50;79.30;;;;;;4970970;28;20202;-65
2023/07/19 08:04:42;;;;;;;2.73;1.87;;;22.50;79.10;;;;;;4970084;28;20217;-64
2023/07/19 08:07:08;;;;;;;2.40;2.20;;;22.60;79.80;;;;;;4969595;28;20193;-64
2023/07/19 08:09:34;;;;;;;1.17;1.07;;;22.70;78.70;;;;;;4970205;28;20265;-64
2023/07/19 08:12:00;;;;;;;1.80;1.53;;;22.80;78.20;;;;;;4968236;28;20572;-64
2023/07/19 08:14:25;;;;;;;3.50;1.70;;;22.80;78.30;;;;;;4965231;28;21006;-64
2023/07/19 08:16:53;;;;;;;2.30;1.67;;;22.90;77.50;;;;;;4968728;28;20222;-64
2023/07/19 08:19:19;;;;;;;2.23;1.53;;;22.90;77.90;;;;;;4970307;28;20183;-64
2023/07/19 08:21:44;;;;;;;1.70;1.60;;;22.90;78.50;;;;;;4968623;28;20441;-64
2023/07/19 08:24:11;;;;;;;3.83;1.60;;;23.00;79.20;;;;;;4970329;28;20651;-64
2023/07/19 08:26:37;;;;;;;1.77;1.73;;;23.10;79.70;;;;;;4970448;28;20174;-64
2023/07/19 08:29:02;;;;;;;2.10;1.37;;;23.10;79.40;;;;;;4970267;28;20477;-64
2023/07/19 08:31:28;;;;;;;1.80;1.73;;;23.20;77.10;;;;;;4966402;28;20213;-65
2023/07/19 08:33:53;;;;;;;1.53;1.43;;;23.20;77.90;;;;;;4966488;28;20659;-64
2023/07/19 08:36:19;;;;;;;2.90;1.10;;;23.30;78.30;;;;;;4968790;28;20171;-64
2023/07/19 08:38:45;;;;;;;1.43;1.40;;;23.30;79.30;;;;;;4969256;28;20178;-64
2023/07/19 08:41:12;;;;;;;1.40;1.03;;;23.40;79.30;;;;;;4969449;28;20199;-64
2023/07/19 08:43:38;;;;;;;2.43;1.40;;;23.40;79.20;;;;;;4969254;28;20253;-64
2023/07/19 08:46:04;;;;;;;1.37;1.27;;;23.50;79.30;;;;;;4969003;28;20450;-64
2023/07/19 08:48:34;;;;;;;1.43;1.30;;;23.60;79.60;;;;;;4969788;28;20210;-64
2023/07/19 08:51:01;;;;;;;1.73;1.50;;;23.70;77.30;;;;;;4961390;28;20201;-63
2023/07/19 08:53:27;;;;;;;3.23;1.33;;;23.80;75.30;;;;;;4962951;28;20418;-64
2023/07/19 08:55:54;;;;;;;1.43;1.33;;;24.00;75.70;;;;;;4962422;28;20776;-64
2023/07/19 08:58:20;;;;;;;2.70;1.30;;;24.20;74.70;;;;;;4968729;28;20182;-63
2023/07/19 09:00:48;;;;;;;1.27;1.17;;;24.50;73.30;;;;;;4969517;28;20560;-65
2023/07/19 09:03:15;;;;;;;1.23;1.13;;;24.70;73.60;;;;;;4970566;28;20429;-64
2023/07/19 09:05:41;;;;;;;2.17;1.67;;;24.90;72.60;;;;;;4969408;28;20465;-63
2023/07/19 09:08:09;;;;;;;2.70;1.30;;;25.10;72.30;;;;;;4970109;28;20494;-63
2023/07/19 09:10:36;;;;;;;1.27;1.17;;;25.30;71.70;;;;;;4960460;28;20497;-63
2023/07/19 09:13:05;;;;;;;1.20;1.10;;;25.40;71.10;;;;;;4969600;28;20430;-63
2023/07/19 09:15:34;;;;;;;2.23;1.33;;;25.40;70.70;;;;;;4957803;28;20462;-63
2023/07/19 09:18:03;;;;;;;2.70;1.83;;;25.40;70.60;;;;;;4956065;28;20473;-63
2023/07/19 09:20:29;;;;;;;3.30;2.20;;;25.30;71.10;;;;;;4960672;28;20470;-63
2023/07/19 09:22:56;;;;;;;1.30;1.10;;;25.30;71.10;;;;;;4964791;28;21013;-64
2023/07/19 09:25:22;;;;;;;1.17;1.07;;;25.30;71.20;;;;;;4967708;28;20277;-63
2023/07/19 09:27:47;;;;;;;4.07;2.23;;;25.30;71.60;;;;;;4963756;28;20509;-63
2023/07/19 09:30:14;;;;;;;3.00;1.83;;;25.30;71.00;;;;;;4958972;28;20317;-64
2023/07/19 09:32:40;;;;;;;2.90;1.63;;;25.30;71.80;;;;;;4961385;28;20184;-63
2023/07/19 09:35:07;;;;;;;1.30;1.20;;;25.40;72.00;;;;;;4967989;28;20505;-63
2023/07/19 09:37:33;;;;;;;3.23;1.73;;;25.60;72.30;;;;;;4953718;28;20746;-64
2023/07/19 09:40:01;;;;;;;1.07;1.00;;;25.70;72.20;;;;;;4967080;28;20433;-63
2023/07/19 09:42:28;;;;;;;1.93;1.40;;;25.80;71.30;;;;;;4958772;28;20941;-64
2023/07/19 09:44:54;;;;;;;2.07;1.93;;;25.80;70.90;;;;;;4958584;28;20425;-63
2023/07/19 09:47:23;;;;;;;1.80;1.33;;;25.80;71.50;;;;;;4953561;28;20477;-64
2023/07/19 09:49:48;;;;;;;2.10;2.00;;;25.80;71.20;;;;;;4962187;28;20457;-63
2023/07/19 09:52:18;;;;;;;3.03;2.50;;;25.80;71.10;;;;;;4955333;28;20494;-64
2023/07/19 09:54:45;;;;;;;2.23;1.70;;;25.90;70.20;;;;;;4959499;28;20190;-63
2023/07/19 09:57:11;;;;;;;2.60;1.43;;;25.90;70.00;;;;;;4964454;28;20854;-62
2023/07/19 09:59:41;;;;;;;3.90;2.03;;;25.90;70.40;;;;;;4967391;28;20505;-62
2023/07/19 10:02:07;;;;;;;5.80;2.43;;;25.90;71.40;;;;;;4964261;28;20504;-62
2023/07/19 10:04:38;;;;;;;2.20;1.33;;;25.90;70.80;;;;;;4965538;28;20484;-63
2023/07/19 10:07:04;;;;;;;2.20;1.30;;;26.00;70.90;;;;;;4971597;28;20482;-62
2023/07/19 10:09:31;;;;;;;1.40;1.27;;;26.00;71.60;;;;;;4971426;28;21037;-62
2023/07/19 10:12:05;;;;;;;1.50;1.30;;;26.20;70.50;;;;;;4972507;28;20429;-62
2023/07/19 10:14:32;;;;;;;2.40;1.83;;;26.40;70.90;;;;;;4972539;28;20426;-63
2023/07/19 10:19:27;;;;;;;1.10;1.00;;;26.70;69.70;;;;;;4972101;28;20481;-88
2023/07/19 10:22:04;;;;;;;1.73;1.60;;;26.70;69.10;;;;;;4991005;28;20430;-85
2023/07/19 10:24:35;;;;;;;2.87;2.20;;;26.80;69.10;;;;;;4974211;28;20182;-87
2023/07/19 10:27:05;;;;;;;1.23;1.13;;;26.80;67.60;;;;;;4975017;28;20947;-87
2023/07/19 10:29:42;;;;;;;3.03;1.70;;;26.80;67.90;;;;;;4974974;28;20492;-87
2023/07/19 10:32:08;;;;;;;1.67;1.23;;;26.90;67.70;;;;;;4966383;28;20433;-86
2023/07/19 10:34:34;;;;;;;2.53;2.33;;;26.90;67.90;;;;;;4969866;28;20456;-90
2023/07/19 10:37:04;;;;;;;1.30;1.20;;;26.90;67.70;;;;;;4985084;28;20422;-84
2023/07/19 10:39:31;;;;;;;1.43;1.33;;;27.00;67.60;;;;;;4974834;28;20413;-83
2023/07/19 10:41:58;;;;;;;2.00;1.90;;;27.10;68.00;;;;;;4975229;28;20417;-87
2023/07/19 10:44:26;;;;;;;3.37;1.47;;;27.10;67.50;;;;;;4976602;28;20433;-85
2023/07/19 10:46:55;;;;;;;1.03;0.93;;;27.10;66.60;;;;;;4971788;28;20929;-87
2023/07/19 10:49:23;;;;;;;1.43;1.40;;;27.20;66.30;;;;;;4976400;28;20453;-83
2023/07/19 10:51:53;;;;;;;2.63;2.10;;;27.20;65.50;;;;;;4976031;28;20418;-89
2023/07/19 10:54:19;;;;;;;1.80;1.47;;;27.20;66.10;;;;;;4976801;28;20409;-89
2023/07/19 10:56:48;;;;;;;1.70;1.67;;;27.20;66.90;;;;;;4976146;28;20429;-85
2023/07/19 10:59:13;;;;;;;1.10;1.00;;;27.30;66.10;;;;;;4978653;28;20958;-86
2023/07/19 11:01:40;;;;;;;1.20;1.10;;;27.30;66.30;;;;;;4976480;28;20417;-83
2023/07/19 11:04:07;;;;;;;1.60;1.50;;;27.40;67.10;;;;;;4991495;28;20281;-85
2023/07/19 11:06:33;;;;;;;1.77;1.30;;;27.50;64.80;;;;;;4974676;28;20425;-87
2023/07/19 11:09:07;;;;;;;1.57;1.50;;;27.60;65.60;;;;;;4976167;28;20471;-87
2023/07/19 11:11:37;;;;;;;2.00;1.63;;;27.70;66.00;;;;;;4974151;28;20445;-85
2023/07/19 11:14:03;;;;;;;1.40;1.30;;;27.80;65.80;;;;;;4981287;28;20445;-85
2023/07/19 11:16:30;;;;;;;8.00;2.10;;;28.00;65.80;;;;;;4988981;28;20413;-84
2023/07/19 11:18:56;;;;;;;2.27;1.80;;;28.00;65.30;;;;;;4974766;28;20516;-86
2023/07/19 11:21:26;;;;;;;2.40;1.57;;;28.10;65.10;;;;;;4972976;28;20430;-87
2023/07/19 11:23:52;;;;;;;1.70;1.23;;;28.20;64.90;;;;;;4975048;28;20588;-85
2023/07/19 11:26:18;;;;;;;2.10;1.50;;;28.20;64.40;;;;;;4990723;28;20422;-87
2023/07/19 11:28:44;;;;;;;3.23;1.57;;;28.20;64.20;;;;;;4989082;28;20489;-85
2023/07/19 11:31:11;;;;;;;1.10;1.00;;;28.30;63.70;;;;;;4972876;28;20962;-86
2023/07/19 11:33:39;;;;;;;1.20;1.10;;;28.20;62.80;;;;;;4972692;28;20232;-89
2023/07/19 11:36:10;;;;;;;1.50;1.30;;;28.20;63.40;;;;;;4966555;28;20959;-87
2023/07/19 11:38:40;;;;;;;2.93;2.10;;;28.10;63.90;;;;;;4989076;28;20454;-84
2023/07/19 11:41:06;;;;;;;2.30;1.13;;;28.00;64.30;;;;;;4973308;28;20410;-84
2023/07/19 11:43:32;;;;;;;1.70;1.63;;;28.00;64.10;;;;;;4971495;28;20449;-87
2023/07/19 11:45:57;;;;;;;1.03;1.00;;;28.00;64.00;;;;;;4974759;28;20182;-82
2023/07/19 11:48:23;;;;;;;0.70;0.70;;;28.00;64.20;;;;;;4973973;28;20389;-84
2023/07/19 11:50:48;;;;;;;1.97;1.40;;;27.90;63.90;;;;;;4974357;28;20241;-84
2023/07/19 11:53:14;;;;;;;2.37;1.43;;;27.90;64.40;;;;;;4972363;28;20191;-84
2023/07/19 11:55:40;;;;;;;2.90;1.30;;;28.00;64.30;;;;;;4989690;28;20185;-85
2023/07/19 11:58:05;;;;;;;6.33;1.97;;;28.20;65.00;;;;;;4971885;28;20253;-84
2023/07/19 12:00:32;;;;;;;1.30;1.13;;;28.30;64.10;;;;;;4973233;28;20653;-87
2023/07/19 12:02:58;;;;;;;1.30;1.23;;;28.30;63.40;;;;;;4988942;28;20179;-85
2023/07/19 12:05:26;;;;;;;1.10;1.00;;;28.10;63.60;;;;;;4972676;28;20451;-81
2023/07/19 12:07:52;;;;;;;1.93;1.30;;;27.90;64.40;;;;;;4972700;28;20588;-83
2023/07/19 12:10:19;;;;;;;1.27;1.23;;;27.70;64.40;;;;;;4971739;28;20467;-83
2023/07/19 12:12:47;;;;;;;1.10;1.00;;;27.70;64.80;;;;;;4975064;28;20440;-84
2023/07/19 12:15:13;;;;;;;1.23;1.13;;;27.60;65.60;;;;;;4987332;28;20430;-85
2023/07/19 12:17:38;;;;;;;4.30;1.50;;;27.60;66.60;;;;;;4986753;28;20473;-86
2023/07/19 12:20:06;;;;;;;1.80;1.70;;;27.60;65.80;;;;;;4968539;28;20665;-84
2023/07/19 12:22:32;;;;;;;1.83;1.47;;;27.60;65.60;;;;;;4964904;28;20183;-85
2023/07/19 12:24:58;;;;;;;1.70;1.40;;;27.60;65.60;;;;;;4987760;28;20425;-85
2023/07/19 12:27:24;;;;;;;1.20;1.10;;;27.60;65.20;;;;;;4981547;28;20447;-87
2023/07/19 12:29:49;;;;;;;4.40;1.30;;;27.60;65.80;;;;;;4970029;28;20210;-85
2023/07/19 12:32:16;;;;;;;1.67;1.23;;;27.50;65.50;;;;;;4987189;28;20453;-88
2023/07/19 12:34:44;;;;;;;1.80;1.40;;;27.40;65.80;;;;;;4972449;28;20174;-86
2023/07/19 12:37:10;;;;;;;1.20;1.17;;;27.30;65.30;;;;;;4986992;28;20422;-83
2023/07/19 12:39:36;;;;;;;1.13;1.10;;;27.10;65.40;;;;;;4988334;28;20437;-86
2023/07/19 12:42:02;;;;;;;3.53;1.50;;;26.90;66.00;;;;;;4971912;28;20225;-84
2023/07/19 12:44:27;;;;;;;7.80;1.37;;;26.80;67.00;;;;;;4973027;28;20458;-84
2023/07/19 12:46:53;;;;;;;1.93;1.33;;;26.70;67.70;;;;;;4972760;28;20208;-89
2023/07/19 12:49:19;;;;;;;2.60;1.20;;;26.60;68.40;;;;;;4971668;28;20218;-87
2023/07/19 12:51:49;;;;;;;9.60;1.43;;;26.50;68.50;;;;;;4987435;28;20281;-86
2023/07/19 12:54:15;;;;;;;1.10;1.00;;;26.50;68.50;;;;;;4987984;28;20425;-87
2023/07/19 12:56:41;;;;;;;1.43;1.30;;;26.50;68.40;;;;;;4972332;28;20425;-86
2023/07/19 12:59:07;;;;;;;1.00;0.90;;;26.60;69.00;;;;;;4971884;28;20504;-84
2023/07/19 13:01:34;;;;;;;1.40;1.23;;;26.60;67.80;;;;;;4989153;28;20955;-84
2023/07/19 13:04:00;;;;;;;1.10;1.10;;;26.60;67.80;;;;;;4988260;28;20441;-87
2023/07/19 13:06:26;;;;;;;1.93;1.30;;;26.60;67.50;;;;;;4963607;28;20422;-84
2023/07/19 13:08:52;;;;;;;2.10;1.97;;;26.70;67.80;;;;;;4987328;28;20564;-85
2023/07/19 13:11:18;;;;;;;2.20;1.73;;;26.70;67.30;;;;;;4988077;28;20521;-85
2023/07/19 13:13:43;;;;;;;2.20;1.40;;;26.70;67.10;;;;;;4972270;28;20608;-83
2023/07/19 13:16:09;;;;;;;1.47;1.37;;;26.70;67.50;;;;;;4973398;28;20422;-85
2023/07/19 13:18:37;;;;;;;1.30;1.07;;;26.70;67.30;;;;;;4987860;28;20242;-85
2023/07/19 13:21:03;;;;;;;1.63;1.20;;;26.80;67.20;;;;;;4963483;28;20424;-85
2023/07/19 13:23:29;;;;;;;1.27;1.17;;;27.00;67.00;;;;;;4964914;28;20426;-83
2023/07/19 13:25:54;;;;;;;3.00;1.67;;;27.20;68.20;;;;;;4966908;28;20182;-86
2023/07/19 13:28:20;;;;;;;1.20;1.10;;;27.40;66.70;;;;;;4970733;28;20331;-87
2023/07/19 13:30:48;;;;;;;1.83;1.37;;;27.50;65.80;;;;;;4987457;28;20175;-85
2023/07/19 13:33:14;;;;;;;4.97;1.70;;;27.40;66.30;;;;;;4972127;28;20418;-86
2023/07/19 13:35:40;;;;;;;3.13;1.87;;;27.20;67.00;;;;;;4987244;28;20418;-86
2023/07/19 13:38:06;;;;;;;1.30;1.20;;;27.00;67.00;;;;;;4964650;28;20194;-86
2023/07/19 13:40:32;;;;;;;1.17;1.10;;;26.80;67.70;;;;;;4971491;28;20245;-84
2023/07/19 13:42:58;;;;;;;1.70;1.10;;;26.50;68.20;;;;;;4987033;28;20968;-83
2023/07/19 13:45:24;;;;;;;1.93;1.50;;;26.30;68.70;;;;;;4972283;28;20445;-84
2023/07/19 13:47:49;;;;;;;3.40;2.17;;;26.10;69.10;;;;;;4970342;28;20208;-85
2023/07/19 13:50:15;;;;;;;1.97;1.87;;;25.90;69.70;;;;;;4965644;28;20202;-85
2023/07/19 13:52:40;;;;;;;1.10;1.00;;;25.70;70.20;;;;;;4969870;28;20174;-84
2023/07/19 13:55:07;;;;;;;1.90;1.17;;;25.50;72.10;;;;;;4978696;28;20178;-85
2023/07/19 13:57:32;;;;;;;1.43;1.43;;;25.10;73.60;;;;;;4986948;28;20759;-86
2023/07/19 13:59:58;;;;;;;2.10;1.63;;;24.70;74.90;;;;;;4969561;28;20525;-86
2023/07/19 14:02:24;;;;;;;1.77;1.37;;;24.50;75.70;;;;;;4966172;28;20186;-86
2023/07/19 14:04:49;;;;;;;1.23;1.13;;;24.30;76.40;;;;;;4987108;28;20539;-87
2023/07/19 14:07:15;;;;;;;1.30;1.20;;;24.10;77.30;;;;;;4963333;28;20450;-88
2023/07/19 14:09:41;;;;;;;7.20;1.63;;;24.00;77.80;;;;;;4987006;28;20218;-87
2023/07/19 14:12:08;;;;;;;1.20;1.10;;;23.90;78.30;;;;;;4971372;28;20182;-87
2023/07/19 14:14:33;;;;;;;1.10;1.00;;;23.80;78.50;;;;;;4983439;28;20434;-87
2023/07/19 14:16:59;;;;;;;1.97;1.87;;;23.80;78.30;;;;;;4972841;28;20444;-84
2023/07/19 14:19:24;;;;;;;1.03;0.97;;;23.60;77.90;;;;;;4987615;28;20225;-86
2023/07/19 14:21:50;;;;;;;1.13;1.07;;;23.50;78.30;;;;;;4971534;28;20197;-87
2023/07/19 14:24:15;;;;;;;1.03;1.00;;;23.50;78.60;;;;;;4971383;28;20648;-87
2023/07/19 14:26:41;;;;;;;1.67;1.13;;;23.40;78.80;;;;;;4974550;28;20209;-85
2023/07/19 14:29:06;;;;;;;1.97;1.87;;;23.40;79.00;;;;;;4966961;28;20243;-89
2023/07/19 14:31:33;;;;;;;2.23;1.20;;;23.40;79.20;;;;;;4968063;28;20210;-84
2023/07/19 14:33:58;;;;;;;1.97;1.40;;;23.40;78.50;;;;;;4972354;28;20179;-84
2023/07/19 14:36:24;;;;;;;1.50;1.40;;;23.40;79.00;;;;;;4986455;28;20430;-85
2023/07/19 14:38:50;;;;;;;3.00;1.30;;;23.40;78.20;;;;;;4978849;28;20211;-85
2023/07/19 14:41:15;;;;;;;1.00;0.90;;;23.40;78.30;;;;;;4972227;28;20305;-87
2023/07/19 14:43:41;;;;;;;1.00;0.90;;;23.40;78.00;;;;;;4974926;28;20281;-85
2023/07/19 14:46:07;;;;;;;1.47;1.23;;;23.30;78.40;;;;;;4991395;28;20179;-84
2023/07/19 14:48:33;;;;;;;2.50;1.50;;;23.20;78.60;;;;;;4990390;28;20214;-86
2023/07/19 14:50:59;;;;;;;1.50;1.20;;;23.10;79.10;;;;;;4990140;28;20245;-86
2023/07/19 14:53:25;;;;;;;3.90;1.40;;;23.00;79.50;;;;;;4974910;28;20179;-86
2023/07/19 14:55:52;;;;;;;1.90;1.30;;;23.00;80.30;;;;;;4991269;28;20418;-84
2023/07/19 14:58:18;;;;;;;1.50;1.40;;;22.90;80.70;;;;;;4975303;28;20201;-87
2023/07/19 15:00:45;;;;;;;1.20;1.10;;;22.80;81.10;;;;;;4989775;28;20512;-87
2023/07/19 15:03:11;;;;;;;1.33;1.13;;;22.80;81.60;;;;;;4976199;28;20426;-84
2023/07/19 15:05:39;;;;;;;1.17;1.10;;;22.80;82.00;;;;;;4974230;28;20428;-87
2023/07/19 15:08:05;;;;;;;2.00;1.43;;;22.70;82.30;;;;;;4971750;28;20195;-86
2023/07/19 15:10:30;;;;;;;1.30;1.20;;;22.70;82.10;;;;;;4984880;28;20518;-86
2023/07/19 15:12:56;;;;;;;1.47;1.20;;;22.70;82.80;;;;;;4972462;28;20816;-87
2023/07/19 15:15:22;;;;;;;1.33;1.33;;;22.70;82.90;;;;;;4973318;28;20232;-87
2023/07/19 15:17:47;;;;;;;1.43;1.37;;;22.70;83.10;;;;;;4973249;28;20495;-81
2023/07/19 15:20:13;;;;;;;2.27;2.07;;;22.80;82.90;;;;;;4982754;28;20507;-88
2023/07/19 15:22:40;;;;;;;5.53;2.03;;;22.80;82.70;;;;;;4981636;28;20208;-84
2023/07/19 15:25:06;;;;;;;1.20;1.10;;;22.80;82.50;;;;;;4981395;28;20273;-86
2023/07/19 15:27:34;;;;;;;4.73;1.50;;;22.80;82.40;;;;;;4976410;28;20453;-86
2023/07/19 15:29:59;;;;;;;1.53;1.40;;;22.80;82.50;;;;;;4974106;28;20466;-84
2023/07/19 15:32:25;;;;;;;1.00;1.00;;;22.80;82.20;;;;;;4973047;28;20897;-84
2023/07/19 15:34:50;;;;;;;1.57;1.47;;;22.80;82.20;;;;;;4989020;28;20174;-85
2023/07/19 15:37:16;;;;;;;1.53;1.43;;;22.80;82.40;;;;;;4973186;28;20209;-85
2023/07/19 15:39:42;;;;;;;1.33;1.13;;;22.80;82.40;;;;;;4966420;28;20257;-85
2023/07/19 15:42:08;;;;;;;1.80;1.70;;;22.80;82.50;;;;;;4972814;28;20273;-83
2023/07/19 15:44:33;;;;;;;2.10;1.20;;;22.80;82.20;;;;;;4989338;28;20332;-83
2023/07/19 15:46:59;;;;;;;2.23;2.03;;;22.80;82.10;;;;;;4972745;28;20182;-87
2023/07/19 15:49:25;;;;;;;3.13;1.93;;;22.80;81.70;;;;;;4988826;28;20576;-86
2023/07/19 15:51:51;;;;;;;1.77;1.67;;;22.80;81.60;;;;;;4982397;28;20204;-90
2023/07/19 15:54:17;;;;;;;2.50;1.50;;;22.70;81.90;;;;;;4990910;28;20928;-84
2023/07/19 15:56:42;;;;;;;1.43;1.33;;;22.70;81.50;;;;;;4972706;28;20186;-88
2023/07/19 15:59:08;;;;;;;1.90;1.30;;;22.70;81.40;;;;;;4966946;28;20269;-83
2023/07/19 16:01:33;;;;;;;2.13;1.97;;;22.60;82.70;;;;;;4977370;28;20678;-84
2023/07/19 16:03:59;;;;;;;1.53;1.43;;;22.60;84.90;;;;;;4963194;28;20187;-84
2023/07/19 16:06:24;;;;;;;1.73;1.60;;;22.50;86.60;;;;;;4967782;28;20187;-84
2023/07/19 16:08:50;;;;;;;1.30;1.20;;;22.30;89.00;;;;;;4977588;28;20549;-85
2023/07/19 16:11:16;;;;;;;2.37;1.33;;;22.10;89.80;;;;;;4962771;28;20186;-84
2023/07/19 16:13:41;;;;;;;1.37;1.27;;;21.90;90.50;;;;;;4953998;28;20186;-89
2023/07/19 16:16:07;;;;;;;1.30;1.20;;;21.80;91.40;;;;;;4966236;28;20181;-86
2023/07/19 16:18:33;;;;;;;1.60;1.50;;;21.80;91.50;;;;;;5004973;23;20245;-86
2023/07/19 16:20:59;;;;;;;1.20;1.10;;;21.70;92.20;;;;;;4978142;28;20200;-87
2023/07/19 16:23:25;;;;;;;2.33;1.77;;;21.70;92.30;;;;;;4984186;28;20721;-87
2023/07/19 16:25:50;;;;;;;1.73;1.63;;;21.70;93.30;;;;;;4982793;28;20194;-87
2023/07/19 16:28:16;;;;;;;1.40;1.30;;;21.70;92.70;;;;;;4984787;28;20184;-88
2023/07/19 16:30:41;;;;;;;1.30;1.20;;;21.70;92.60;;;;;;4984178;28;20281;-88
2023/07/19 16:33:09;;;;;;;2.13;1.63;;;21.70;92.80;;;;;;4984471;28;20174;-88
2023/07/19 16:35:34;;;;;;;1.63;1.30;;;21.70;93.00;;;;;;4991330;28;20216;-88
2023/07/19 16:38:00;;;;;;;1.50;1.40;;;21.70;92.80;;;;;;4980134;28;20442;-87
2023/07/19 16:40:28;;;;;;;1.90;1.53;;;21.70;93.40;;;;;;4972539;28;20202;-87
2023/07/19 16:42:54;;;;;;;1.30;1.20;;;21.70;93.50;;;;;;4973382;28;20277;-87